sensor_id;sensor_type;location;lat;lon;timestamp;temperature;humidity
16118;DHT22;8163;50.118;5.342;2023-03-14T00:00:07;9.10;99.90
16118;DHT22;8163;50.118;5.342;2023-03-14T00:02:36;9.10;99.90
16118;DHT22;8163;50.118;5.342;2023-03-14T00:05:07;9.10;99.90
16118;DHT22;8163;50.118;5.342;2023-03-14T00:07:38;9.00;99.90
16118;DHT22;8163;50.118;5.342;2023-03-14T00:10:10;8.90;99.90
16118;DHT22;8163;50.118;5.342;2023-03-14T00:12:39;8.90;99.90
16118;DHT22;8163;50.118;5.342;2023-03-14T00:15:13;8.90;99.90
16118;DHT22;8163;50.118;5.342;2023-03-14T00:17:43;8.80;99.90
16118;DHT22;8163;50.118;5.342;2023-03-14T00:20:11;8.80;99.90
16118;DHT22;8163;50.118;5.342;2023-03-14T00:22:40;8.80;99.90
16118;DHT22;8163;50.118;5.342;2023-03-14T00:25:09;8.70;99.90
16118;DHT22;8163;50.118;5.342;2023-03-14T00:27:38;8.70;99.90
16118;DHT22;8163;50.118;5.342;2023-03-14T00:30:07;8.70;99.90
16118;DHT22;8163;50.118;5.342;2023-03-14T00:32:42;8.70;99.90
16118;DHT22;8163;50.118;5.342;2023-03-14T00:35:09;8.70;99.90
16118;DHT22;8163;50.118;5.342;2023-03-14T00:37:37;8.60;99.90
16118;DHT22;8163;50.118;5.342;2023-03-14T00:40:05;8.70;99.90
16118;DHT22;8163;50.118;5.342;2023-03-14T00:42:33;8.60;99.90
16118;DHT22;8163;50.118;5.342;2023-03-14T00:45:00;8.60;99.90
16118;DHT22;8163;50.118;5.342;2023-03-14T00:47:27;8.60;99.90
16118;DHT22;8163;50.118;5.342;2023-03-14T00:49:55;8.60;99.90
16118;DHT22;8163;50.118;5.342;2023-03-14T00:52:22;8.50;99.90
16118;DHT22;8163;50.118;5.342;2023-03-14T00:54:49;8.50;99.90
16118;DHT22;8163;50.118;5.342;2023-03-14T00:57:16;8.50;99.90
16118;DHT22;8163;50.118;5.342;2023-03-14T00:59:43;8.50;99.90
16118;DHT22;8163;50.118;5.342;2023-03-14T01:02:10;8.60;99.90
16118;DHT22;8163;50.118;5.342;2023-03-14T01:04:37;8.60;99.90
16118;DHT22;8163;50.118;5.342;2023-03-14T01:07:06;8.60;99.90
16118;DHT22;8163;50.118;5.342;2023-03-14T01:09:33;8.60;99.90
16118;DHT22;8163;50.118;5.342;2023-03-14T01:12:00;8.50;99.90
16118;DHT22;8163;50.118;5.342;2023-03-14T01:14:27;8.50;99.90
16118;DHT22;8163;50.118;5.342;2023-03-14T01:16:54;8.50;99.90
16118;DHT22;8163;50.118;5.342;2023-03-14T01:19:26;8.50;99.90
16118;DHT22;8163;50.118;5.342;2023-03-14T01:21:53;8.50;99.90
16118;DHT22;8163;50.118;5.342;2023-03-14T01:24:21;8.50;99.90
16118;DHT22;8163;50.118;5.342;2023-03-14T01:26:49;8.50;99.90
16118;DHT22;8163;50.118;5.342;2023-03-14T01:29:16;8.50;99.90
16118;DHT22;8163;50.118;5.342;2023-03-14T01:31:43;8.50;99.90
16118;DHT22;8163;50.118;5.342;2023-03-14T01:34:10;8.40;99.90
16118;DHT22;8163;50.118;5.342;2023-03-14T01:36:39;8.40;99.90
16118;DHT22;8163;50.118;5.342;2023-03-14T01:39:06;8.40;99.90
16118;DHT22;8163;50.118;5.342;2023-03-14T01:41:37;8.40;99.90
16118;DHT22;8163;50.118;5.342;2023-03-14T01:44:04;8.40;99.90
16118;DHT22;8163;50.118;5.342;2023-03-14T01:46:37;8.40;99.90
16118;DHT22;8163;50.118;5.342;2023-03-14T01:49:10;8.30;99.90
16118;DHT22;8163;50.118;5.342;2023-03-14T01:51:44;8.30;99.90
16118;DHT22;8163;50.118;5.342;2023-03-14T01:54:16;8.20;99.90
16118;DHT22;8163;50.118;5.342;2023-03-14T01:56:48;8.20;99.90
16118;DHT22;8163;50.118;5.342;2023-03-14T01:59:17;8.20;99.90
16118;DHT22;8163;50.118;5.342;2023-03-14T02:01:46;8.20;99.90
16118;DHT22;8163;50.118;5.342;2023-03-14T02:04:14;8.10;99.90
16118;DHT22;8163;50.118;5.342;2023-03-14T02:06:52;8.10;99.90
16118;DHT22;8163;50.118;5.342;2023-03-14T02:09:27;8.10;99.90
16118;DHT22;8163;50.118;5.342;2023-03-14T02:11:56;8.00;99.90
16118;DHT22;8163;50.118;5.342;2023-03-14T02:14:30;8.00;99.90
16118;DHT22;8163;50.118;5.342;2023-03-14T02:16:59;8.00;99.90
16118;DHT22;8163;50.118;5.342;2023-03-14T02:19:35;8.00;99.90
16118;DHT22;8163;50.118;5.342;2023-03-14T02:22:09;7.90;99.90
16118;DHT22;8163;50.118;5.342;2023-03-14T02:24:42;7.90;99.90
16118;DHT22;8163;50.118;5.342;2023-03-14T02:27:12;7.90;99.90
16118;DHT22;8163;50.118;5.342;2023-03-14T02:29:45;7.90;99.90
16118;DHT22;8163;50.118;5.342;2023-03-14T02:32:14;7.90;99.90
16118;DHT22;8163;50.118;5.342;2023-03-14T02:34:46;7.90;99.90
16118;DHT22;8163;50.118;5.342;2023-03-14T02:37:15;7.80;99.90
16118;DHT22;8163;50.118;5.342;2023-03-14T02:39:45;7.80;99.90
16118;DHT22;8163;50.118;5.342;2023-03-14T02:42:17;7.80;99.90
16118;DHT22;8163;50.118;5.342;2023-03-14T02:44:52;7.80;99.90
16118;DHT22;8163;50.118;5.342;2023-03-14T02:47:22;7.80;99.90
16118;DHT22;8163;50.118;5.342;2023-03-14T02:49:57;7.80;99.90
16118;DHT22;8163;50.118;5.342;2023-03-14T02:52:25;7.80;99.90
16118;DHT22;8163;50.118;5.342;2023-03-14T02:54:52;7.80;99.90
16118;DHT22;8163;50.118;5.342;2023-03-14T02:57:21;7.80;99.90
16118;DHT22;8163;50.118;5.342;2023-03-14T02:59:48;7.70;99.90
16118;DHT22;8163;50.118;5.342;2023-03-14T03:02:15;7.80;99.90
16118;DHT22;8163;50.118;5.342;2023-03-14T03:04:42;7.70;99.90
16118;DHT22;8163;50.118;5.342;2023-03-14T03:07:08;7.70;99.90
16118;DHT22;8163;50.118;5.342;2023-03-14T03:09:35;7.70;99.90
16118;DHT22;8163;50.118;5.342;2023-03-14T03:12:04;7.70;99.90
16118;DHT22;8163;50.118;5.342;2023-03-14T03:14:32;7.70;99.90
16118;DHT22;8163;50.118;5.342;2023-03-14T03:16:59;7.70;99.90
16118;DHT22;8163;50.118;5.342;2023-03-14T03:19:26;7.70;99.90
16118;DHT22;8163;50.118;5.342;2023-03-14T03:21:53;7.60;99.90
16118;DHT22;8163;50.118;5.342;2023-03-14T03:24:20;7.60;99.90
16118;DHT22;8163;50.118;5.342;2023-03-14T03:26:46;7.70;99.90
16118;DHT22;8163;50.118;5.342;2023-03-14T03:29:14;7.60;99.90
16118;DHT22;8163;50.118;5.342;2023-03-14T03:31:42;7.60;99.90
16118;DHT22;8163;50.118;5.342;2023-03-14T03:34:13;7.50;99.90
16118;DHT22;8163;50.118;5.342;2023-03-14T03:36:41;7.60;99.90
16118;DHT22;8163;50.118;5.342;2023-03-14T03:39:08;7.60;99.90
16118;DHT22;8163;50.118;5.342;2023-03-14T03:41:35;7.60;99.90
16118;DHT22;8163;50.118;5.342;2023-03-14T03:44:02;7.60;99.90
16118;DHT22;8163;50.118;5.342;2023-03-14T03:46:29;7.60;99.90
16118;DHT22;8163;50.118;5.342;2023-03-14T03:48:58;7.60;99.90
16118;DHT22;8163;50.118;5.342;2023-03-14T03:51:26;7.50;99.90
16118;DHT22;8163;50.118;5.342;2023-03-14T03:53:52;7.60;99.90
16118;DHT22;8163;50.118;5.342;2023-03-14T03:56:19;7.60;99.90
16118;DHT22;8163;50.118;5.342;2023-03-14T03:58:46;7.60;99.90
16118;DHT22;8163;50.118;5.342;2023-03-14T04:01:13;7.50;99.90
16118;DHT22;8163;50.118;5.342;2023-03-14T04:03:41;7.60;99.90
16118;DHT22;8163;50.118;5.342;2023-03-14T04:06:12;7.50;99.90
16118;DHT22;8163;50.118;5.342;2023-03-14T04:08:40;7.50;99.90
16118;DHT22;8163;50.118;5.342;2023-03-14T04:11:13;7.50;99.90
16118;DHT22;8163;50.118;5.342;2023-03-14T04:13:40;7.60;99.90
16118;DHT22;8163;50.118;5.342;2023-03-14T04:16:12;7.50;99.90
16118;DHT22;8163;50.118;5.342;2023-03-14T04:18:40;7.50;99.90
16118;DHT22;8163;50.118;5.342;2023-03-14T04:21:07;7.50;99.90
16118;DHT22;8163;50.118;5.342;2023-03-14T04:23:36;7.50;99.90
16118;DHT22;8163;50.118;5.342;2023-03-14T04:26:03;7.50;99.90
16118;DHT22;8163;50.118;5.342;2023-03-14T04:28:30;7.50;99.90
16118;DHT22;8163;50.118;5.342;2023-03-14T04:30:57;7.50;99.90
16118;DHT22;8163;50.118;5.342;2023-03-14T04:33:24;7.50;99.90
16118;DHT22;8163;50.118;5.342;2023-03-14T04:35:53;7.50;99.90
16118;DHT22;8163;50.118;5.342;2023-03-14T04:38:20;7.50;99.90
16118;DHT22;8163;50.118;5.342;2023-03-14T04:40:49;7.50;99.90
16118;DHT22;8163;50.118;5.342;2023-03-14T04:43:16;7.50;99.90
16118;DHT22;8163;50.118;5.342;2023-03-14T04:45:44;7.50;99.90
16118;DHT22;8163;50.118;5.342;2023-03-14T04:48:11;7.50;99.90
16118;DHT22;8163;50.118;5.342;2023-03-14T04:50:38;7.50;99.90
16118;DHT22;8163;50.118;5.342;2023-03-14T04:53:05;7.50;99.90
16118;DHT22;8163;50.118;5.342;2023-03-14T04:55:32;7.50;99.90
16118;DHT22;8163;50.118;5.342;2023-03-14T04:58:01;7.50;99.90
16118;DHT22;8163;50.118;5.342;2023-03-14T05:00:28;7.50;99.90
16118;DHT22;8163;50.118;5.342;2023-03-14T05:02:56;7.50;99.90
16118;DHT22;8163;50.118;5.342;2023-03-14T05:05:23;7.50;99.90
16118;DHT22;8163;50.118;5.342;2023-03-14T05:07:51;7.60;99.90
16118;DHT22;8163;50.118;5.342;2023-03-14T05:10:17;7.60;99.90
16118;DHT22;8163;50.118;5.342;2023-03-14T05:12:44;7.60;99.90
16118;DHT22;8163;50.118;5.342;2023-03-14T05:15:13;7.60;99.90
16118;DHT22;8163;50.118;5.342;2023-03-14T05:17:40;7.50;99.90
16118;DHT22;8163;50.118;5.342;2023-03-14T05:20:08;7.50;99.90
16118;DHT22;8163;50.118;5.342;2023-03-14T05:22:38;7.60;99.90
16118;DHT22;8163;50.118;5.342;2023-03-14T05:25:06;7.60;99.90
16118;DHT22;8163;50.118;5.342;2023-03-14T05:27:33;7.50;99.90
16118;DHT22;8163;50.118;5.342;2023-03-14T05:30:00;7.60;99.90
16118;DHT22;8163;50.118;5.342;2023-03-14T05:32:29;7.60;99.90
16118;DHT22;8163;50.118;5.342;2023-03-14T05:34:56;7.50;99.90
16118;DHT22;8163;50.118;5.342;2023-03-14T05:37:24;7.60;99.90
16118;DHT22;8163;50.118;5.342;2023-03-14T05:39:51;7.60;99.90
16118;DHT22;8163;50.118;5.342;2023-03-14T05:42:18;7.60;99.90
16118;DHT22;8163;50.118;5.342;2023-03-14T05:44:45;7.60;99.90
16118;DHT22;8163;50.118;5.342;2023-03-14T05:47:15;7.60;99.90
16118;DHT22;8163;50.118;5.342;2023-03-14T05:49:46;7.60;99.90
16118;DHT22;8163;50.118;5.342;2023-03-14T05:52:14;7.60;99.90
16118;DHT22;8163;50.118;5.342;2023-03-14T05:54:41;7.60;99.90
16118;DHT22;8163;50.118;5.342;2023-03-14T05:57:08;7.60;99.90
16118;DHT22;8163;50.118;5.342;2023-03-14T05:59:35;7.60;99.90
16118;DHT22;8163;50.118;5.342;2023-03-14T06:02:02;7.60;99.90
16118;DHT22;8163;50.118;5.342;2023-03-14T06:04:29;7.60;99.90
16118;DHT22;8163;50.118;5.342;2023-03-14T06:06:57;7.60;99.90
16118;DHT22;8163;50.118;5.342;2023-03-14T06:09:24;7.60;99.90
16118;DHT22;8163;50.118;5.342;2023-03-14T06:11:51;7.70;99.90
16118;DHT22;8163;50.118;5.342;2023-03-14T06:14:18;7.60;99.90
16118;DHT22;8163;50.118;5.342;2023-03-14T06:16:45;7.70;99.90
16118;DHT22;8163;50.118;5.342;2023-03-14T06:19:13;7.70;99.90
16118;DHT22;8163;50.118;5.342;2023-03-14T06:21:40;7.80;99.90
16118;DHT22;8163;50.118;5.342;2023-03-14T06:24:08;7.80;99.90
16118;DHT22;8163;50.118;5.342;2023-03-14T06:26:36;7.80;99.90
16118;DHT22;8163;50.118;5.342;2023-03-14T06:29:04;7.80;99.90
16118;DHT22;8163;50.118;5.342;2023-03-14T06:31:31;7.80;99.90
16118;DHT22;8163;50.118;5.342;2023-03-14T06:33:59;7.80;99.90
16118;DHT22;8163;50.118;5.342;2023-03-14T06:36:26;7.80;99.90
16118;DHT22;8163;50.118;5.342;2023-03-14T06:38:53;7.90;99.90
16118;DHT22;8163;50.118;5.342;2023-03-14T06:41:21;7.90;99.90
16118;DHT22;8163;50.118;5.342;2023-03-14T06:43:49;7.90;99.90
16118;DHT22;8163;50.118;5.342;2023-03-14T06:46:16;8.00;99.90
16118;DHT22;8163;50.118;5.342;2023-03-14T06:48:43;8.00;99.90
16118;DHT22;8163;50.118;5.342;2023-03-14T06:51:10;8.00;99.90
16118;DHT22;8163;50.118;5.342;2023-03-14T06:53:37;8.00;99.90
16118;DHT22;8163;50.118;5.342;2023-03-14T06:56:04;8.10;99.90
16118;DHT22;8163;50.118;5.342;2023-03-14T06:58:33;8.10;99.90
16118;DHT22;8163;50.118;5.342;2023-03-14T07:01:00;8.10;99.90
16118;DHT22;8163;50.118;5.342;2023-03-14T07:03:27;8.00;99.90
16118;DHT22;8163;50.118;5.342;2023-03-14T07:05:55;8.00;99.90
16118;DHT22;8163;50.118;5.342;2023-03-14T07:08:22;8.00;99.90
16118;DHT22;8163;50.118;5.342;2023-03-14T07:10:49;8.00;99.90
16118;DHT22;8163;50.118;5.342;2023-03-14T07:13:17;8.00;99.90
16118;DHT22;8163;50.118;5.342;2023-03-14T07:15:45;8.00;99.90
16118;DHT22;8163;50.118;5.342;2023-03-14T07:18:12;7.90;99.90
16118;DHT22;8163;50.118;5.342;2023-03-14T07:20:39;8.00;99.90
16118;DHT22;8163;50.118;5.342;2023-03-14T07:23:06;8.00;99.90
16118;DHT22;8163;50.118;5.342;2023-03-14T07:25:33;8.00;99.90
16118;DHT22;8163;50.118;5.342;2023-03-14T07:28:00;8.00;99.90
16118;DHT22;8163;50.118;5.342;2023-03-14T07:30:27;8.00;99.90
16118;DHT22;8163;50.118;5.342;2023-03-14T07:32:55;8.00;99.90
16118;DHT22;8163;50.118;5.342;2023-03-14T07:35:22;8.00;99.90
16118;DHT22;8163;50.118;5.342;2023-03-14T07:37:49;8.00;99.90
16118;DHT22;8163;50.118;5.342;2023-03-14T07:40:17;8.00;99.90
16118;DHT22;8163;50.118;5.342;2023-03-14T07:42:44;8.00;99.90
16118;DHT22;8163;50.118;5.342;2023-03-14T07:45:11;8.10;99.90
16118;DHT22;8163;50.118;5.342;2023-03-14T07:47:38;8.10;99.90
16118;DHT22;8163;50.118;5.342;2023-03-14T07:50:08;8.00;99.90
16118;DHT22;8163;50.118;5.342;2023-03-14T07:52:35;8.00;99.90
16118;DHT22;8163;50.118;5.342;2023-03-14T07:55:02;8.00;99.90
16118;DHT22;8163;50.118;5.342;2023-03-14T07:57:29;8.00;99.90
16118;DHT22;8163;50.118;5.342;2023-03-14T07:59:56;8.10;99.90
16118;DHT22;8163;50.118;5.342;2023-03-14T08:02:23;8.10;99.90
16118;DHT22;8163;50.118;5.342;2023-03-14T08:04:50;8.20;99.90
16118;DHT22;8163;50.118;5.342;2023-03-14T08:07:18;8.20;99.90
16118;DHT22;8163;50.118;5.342;2023-03-14T08:09:45;8.20;99.90
16118;DHT22;8163;50.118;5.342;2023-03-14T08:12:12;8.20;99.90
16118;DHT22;8163;50.118;5.342;2023-03-14T08:14:39;8.20;99.90
16118;DHT22;8163;50.118;5.342;2023-03-14T08:17:06;8.20;99.90
16118;DHT22;8163;50.118;5.342;2023-03-14T08:19:33;8.20;99.90
16118;DHT22;8163;50.118;5.342;2023-03-14T08:22:00;8.00;99.90
16118;DHT22;8163;50.118;5.342;2023-03-14T08:24:30;7.80;99.90
16118;DHT22;8163;50.118;5.342;2023-03-14T08:26:57;7.70;99.90
16118;DHT22;8163;50.118;5.342;2023-03-14T08:29:24;7.60;99.90
16118;DHT22;8163;50.118;5.342;2023-03-14T08:31:51;7.50;99.90
16118;DHT22;8163;50.118;5.342;2023-03-14T08:34:19;7.50;99.90
16118;DHT22;8163;50.118;5.342;2023-03-14T08:36:46;7.40;99.90
16118;DHT22;8163;50.118;5.342;2023-03-14T08:39:13;7.40;99.90
16118;DHT22;8163;50.118;5.342;2023-03-14T08:41:41;7.40;99.90
16118;DHT22;8163;50.118;5.342;2023-03-14T08:44:10;7.30;99.90
16118;DHT22;8163;50.118;5.342;2023-03-14T08:46:38;7.20;99.90
16118;DHT22;8163;50.118;5.342;2023-03-14T08:49:06;7.20;99.90
16118;DHT22;8163;50.118;5.342;2023-03-14T08:51:33;7.20;99.90
16118;DHT22;8163;50.118;5.342;2023-03-14T08:53:59;7.20;99.90
16118;DHT22;8163;50.118;5.342;2023-03-14T08:56:26;7.20;99.90
16118;DHT22;8163;50.118;5.342;2023-03-14T08:58:55;7.10;99.90
16118;DHT22;8163;50.118;5.342;2023-03-14T09:01:22;7.10;99.90
16118;DHT22;8163;50.118;5.342;2023-03-14T09:03:50;7.00;99.90
16118;DHT22;8163;50.118;5.342;2023-03-14T09:06:17;7.00;99.90
16118;DHT22;8163;50.118;5.342;2023-03-14T09:08:44;6.90;99.90
16118;DHT22;8163;50.118;5.342;2023-03-14T09:11:12;6.90;99.90
16118;DHT22;8163;50.118;5.342;2023-03-14T09:13:40;6.90;99.90
16118;DHT22;8163;50.118;5.342;2023-03-14T09:16:09;6.90;99.90
16118;DHT22;8163;50.118;5.342;2023-03-14T09:18:36;6.80;99.90
16118;DHT22;8163;50.118;5.342;2023-03-14T09:21:03;6.80;99.90
16118;DHT22;8163;50.118;5.342;2023-03-14T09:23:31;6.80;99.90
16118;DHT22;8163;50.118;5.342;2023-03-14T09:25:59;6.70;99.90
16118;DHT22;8163;50.118;5.342;2023-03-14T09:28:26;6.70;99.90
16118;DHT22;8163;50.118;5.342;2023-03-14T09:30:53;6.70;99.90
16118;DHT22;8163;50.118;5.342;2023-03-14T09:33:22;6.80;99.90
16118;DHT22;8163;50.118;5.342;2023-03-14T09:35:49;6.80;99.90
16118;DHT22;8163;50.118;5.342;2023-03-14T09:38:16;6.90;99.90
16118;DHT22;8163;50.118;5.342;2023-03-14T09:40:46;7.00;99.90
16118;DHT22;8163;50.118;5.342;2023-03-14T09:43:14;7.20;99.90
16118;DHT22;8163;50.118;5.342;2023-03-14T09:45:42;7.30;99.90
16118;DHT22;8163;50.118;5.342;2023-03-14T09:48:15;7.10;99.90
16118;DHT22;8163;50.118;5.342;2023-03-14T09:50:46;7.00;99.90
16118;DHT22;8163;50.118;5.342;2023-03-14T09:53:17;7.00;99.90
16118;DHT22;8163;50.118;5.342;2023-03-14T09:55:45;7.00;99.90
16118;DHT22;8163;50.118;5.342;2023-03-14T09:58:16;7.10;99.90
16118;DHT22;8163;50.118;5.342;2023-03-14T10:00:44;7.00;99.90
16118;DHT22;8163;50.118;5.342;2023-03-14T10:03:26;6.90;99.90
16118;DHT22;8163;50.118;5.342;2023-03-14T10:05:55;6.80;99.90
16118;DHT22;8163;50.118;5.342;2023-03-14T10:08:22;6.70;99.90
16118;DHT22;8163;50.118;5.342;2023-03-14T10:10:49;6.60;99.90
16118;DHT22;8163;50.118;5.342;2023-03-14T10:13:18;6.60;99.90
16118;DHT22;8163;50.118;5.342;2023-03-14T10:15:50;6.60;99.90
16118;DHT22;8163;50.118;5.342;2023-03-14T10:18:18;6.70;99.90
16118;DHT22;8163;50.118;5.342;2023-03-14T10:20:47;6.70;99.90
16118;DHT22;8163;50.118;5.342;2023-03-14T10:23:27;6.70;99.90
16118;DHT22;8163;50.118;5.342;2023-03-14T10:26:04;6.70;99.90
16118;DHT22;8163;50.118;5.342;2023-03-14T10:28:33;6.70;99.90
16118;DHT22;8163;50.118;5.342;2023-03-14T10:31:01;6.70;99.90
16118;DHT22;8163;50.118;5.342;2023-03-14T10:33:31;6.70;99.90
16118;DHT22;8163;50.118;5.342;2023-03-14T10:36:00;6.50;99.90
16118;DHT22;8163;50.118;5.342;2023-03-14T10:38:30;6.40;99.90
16118;DHT22;8163;50.118;5.342;2023-03-14T10:40:59;6.30;99.90
16118;DHT22;8163;50.118;5.342;2023-03-14T10:43:31;6.30;99.90
16118;DHT22;8163;50.118;5.342;2023-03-14T10:46:00;6.40;99.90
16118;DHT22;8163;50.118;5.342;2023-03-14T10:48:33;6.40;99.90
16118;DHT22;8163;50.118;5.342;2023-03-14T10:51:06;6.40;99.90
16118;DHT22;8163;50.118;5.342;2023-03-14T10:53:40;6.60;99.90
16118;DHT22;8163;50.118;5.342;2023-03-14T10:56:11;6.90;99.90
16118;DHT22;8163;50.118;5.342;2023-03-14T10:58:41;7.10;99.90
16118;DHT22;8163;50.118;5.342;2023-03-14T11:01:25;7.20;99.90
16118;DHT22;8163;50.118;5.342;2023-03-14T11:03:57;7.30;99.90
16118;DHT22;8163;50.118;5.342;2023-03-14T11:06:33;7.20;99.90
16118;DHT22;8163;50.118;5.342;2023-03-14T11:09:07;7.10;99.90
16118;DHT22;8163;50.118;5.342;2023-03-14T11:11:39;7.10;99.90
16118;DHT22;8163;50.118;5.342;2023-03-14T11:14:17;7.10;99.90
16118;DHT22;8163;50.118;5.342;2023-03-14T11:16:53;7.20;99.90
16118;DHT22;8163;50.118;5.342;2023-03-14T11:22:21;7.70;99.90
16118;DHT22;8163;50.118;5.342;2023-03-14T11:25:07;7.90;99.90
16118;DHT22;8163;50.118;5.342;2023-03-14T11:27:42;8.00;99.90
16118;DHT22;8163;50.118;5.342;2023-03-14T11:30:25;8.00;99.90
16118;DHT22;8163;50.118;5.342;2023-03-14T11:32:57;8.00;99.90
16118;DHT22;8163;50.118;5.342;2023-03-14T11:35:30;8.10;99.90
16118;DHT22;8163;50.118;5.342;2023-03-14T11:38:18;8.20;99.90
16118;DHT22;8163;50.118;5.342;2023-03-14T11:40:48;8.20;99.90
16118;DHT22;8163;50.118;5.342;2023-03-14T11:43:20;8.20;99.90
16118;DHT22;8163;50.118;5.342;2023-03-14T11:45:58;8.20;99.90
16118;DHT22;8163;50.118;5.342;2023-03-14T11:48:35;8.20;99.90
16118;DHT22;8163;50.118;5.342;2023-03-14T11:51:08;8.00;99.90
16118;DHT22;8163;50.118;5.342;2023-03-14T11:53:46;7.80;99.90
16118;DHT22;8163;50.118;5.342;2023-03-14T11:56:25;7.50;99.90
16118;DHT22;8163;50.118;5.342;2023-03-14T11:58:58;7.30;99.90
16118;DHT22;8163;50.118;5.342;2023-03-14T12:01:33;7.20;99.90
16118;DHT22;8163;50.118;5.342;2023-03-14T12:04:07;7.10;99.90
16118;DHT22;8163;50.118;5.342;2023-03-14T12:06:46;7.10;99.90
16118;DHT22;8163;50.118;5.342;2023-03-14T12:09:15;7.00;99.90
16118;DHT22;8163;50.118;5.342;2023-03-14T12:11:46;7.00;99.90
16118;DHT22;8163;50.118;5.342;2023-03-14T12:14:23;7.10;99.90
16118;DHT22;8163;50.118;5.342;2023-03-14T12:16:54;7.10;99.90
16118;DHT22;8163;50.118;5.342;2023-03-14T12:19:34;7.20;99.90
16118;DHT22;8163;50.118;5.342;2023-03-14T12:22:19;7.30;99.90
16118;DHT22;8163;50.118;5.342;2023-03-14T12:24:52;7.30;99.90
16118;DHT22;8163;50.118;5.342;2023-03-14T12:27:45;7.50;99.90
16118;DHT22;8163;50.118;5.342;2023-03-14T12:30:27;7.50;99.90
16118;DHT22;8163;50.118;5.342;2023-03-14T12:33:21;7.60;99.90
16118;DHT22;8163;50.118;5.342;2023-03-14T12:35:57;7.60;99.90
16118;DHT22;8163;50.118;5.342;2023-03-14T12:38:31;7.50;99.90
16118;DHT22;8163;50.118;5.342;2023-03-14T12:41:12;7.40;99.90
16118;DHT22;8163;50.118;5.342;2023-03-14T12:43:41;7.40;99.90
16118;DHT22;8163;50.118;5.342;2023-03-14T12:46:15;7.50;99.90
16118;DHT22;8163;50.118;5.342;2023-03-14T12:48:46;7.50;99.90
16118;DHT22;8163;50.118;5.342;2023-03-14T12:51:15;7.50;99.90
16118;DHT22;8163;50.118;5.342;2023-03-14T12:54:16;7.60;99.90
16118;DHT22;8163;50.118;5.342;2023-03-14T12:57:17;7.80;99.90
16118;DHT22;8163;50.118;5.342;2023-03-14T12:59:52;7.90;99.90
16118;DHT22;8163;50.118;5.342;2023-03-14T13:02:26;8.10;99.90
16118;DHT22;8163;50.118;5.342;2023-03-14T13:05:01;8.20;99.90
16118;DHT22;8163;50.118;5.342;2023-03-14T13:08:03;8.20;99.90
16118;DHT22;8163;50.118;5.342;2023-03-14T13:10:39;8.20;99.90
16118;DHT22;8163;50.118;5.342;2023-03-14T13:13:15;8.10;99.90
16118;DHT22;8163;50.118;5.342;2023-03-14T13:15:48;8.00;99.90
16118;DHT22;8163;50.118;5.342;2023-03-14T13:18:19;8.00;99.90
16118;DHT22;8163;50.118;5.342;2023-03-14T13:20:53;7.90;99.90
16118;DHT22;8163;50.118;5.342;2023-03-14T13:23:22;7.90;99.90
16118;DHT22;8163;50.118;5.342;2023-03-14T13:25:49;7.80;99.90
16118;DHT22;8163;50.118;5.342;2023-03-14T13:28:18;7.80;99.90
16118;DHT22;8163;50.118;5.342;2023-03-14T13:30:48;7.70;99.90
16118;DHT22;8163;50.118;5.342;2023-03-14T13:33:17;7.70;99.90
16118;DHT22;8163;50.118;5.342;2023-03-14T13:35:46;7.70;99.90
16118;DHT22;8163;50.118;5.342;2023-03-14T13:38:17;7.70;99.90
16118;DHT22;8163;50.118;5.342;2023-03-14T13:40:45;7.70;99.90
16118;DHT22;8163;50.118;5.342;2023-03-14T13:43:16;7.60;99.90
16118;DHT22;8163;50.118;5.342;2023-03-14T13:45:54;7.60;99.90
16118;DHT22;8163;50.118;5.342;2023-03-14T13:48:27;7.50;99.90
16118;DHT22;8163;50.118;5.342;2023-03-14T13:50:59;7.50;99.90
16118;DHT22;8163;50.118;5.342;2023-03-14T13:53:27;7.50;99.90
16118;DHT22;8163;50.118;5.342;2023-03-14T13:55:54;7.40;99.90
16118;DHT22;8163;50.118;5.342;2023-03-14T13:58:24;7.50;99.90
16118;DHT22;8163;50.118;5.342;2023-03-14T14:35:50;6.80;99.90
16118;DHT22;8163;50.118;5.342;2023-03-14T14:38:18;6.80;99.90
16118;DHT22;8163;50.118;5.342;2023-03-14T14:40:49;6.90;99.90
16118;DHT22;8163;50.118;5.342;2023-03-14T14:43:18;7.00;99.90
16118;DHT22;8163;50.118;5.342;2023-03-14T14:45:48;7.10;99.90
16118;DHT22;8163;50.118;5.342;2023-03-14T14:48:21;7.10;99.90
16118;DHT22;8163;50.118;5.342;2023-03-14T14:51:07;7.20;99.90
16118;DHT22;8163;50.118;5.342;2023-03-14T14:53:37;7.30;99.90
16118;DHT22;8163;50.118;5.342;2023-03-14T14:56:17;7.40;99.90
16118;DHT22;8163;50.118;5.342;2023-03-14T14:58:46;7.50;99.90
16118;DHT22;8163;50.118;5.342;2023-03-14T15:01:15;7.50;99.90
16118;DHT22;8163;50.118;5.342;2023-03-14T15:03:44;7.50;99.90
16118;DHT22;8163;50.118;5.342;2023-03-14T15:06:13;7.40;99.90
16118;DHT22;8163;50.118;5.342;2023-03-14T15:08:42;7.30;99.90
16118;DHT22;8163;50.118;5.342;2023-03-14T15:11:16;7.30;99.90
16118;DHT22;8163;50.118;5.342;2023-03-14T15:13:43;7.30;99.90
16118;DHT22;8163;50.118;5.342;2023-03-14T15:16:11;7.20;99.90
16118;DHT22;8163;50.118;5.342;2023-03-14T15:18:39;7.20;99.90
16118;DHT22;8163;50.118;5.342;2023-03-14T15:21:06;7.20;99.90
16118;DHT22;8163;50.118;5.342;2023-03-14T15:23:34;7.20;99.90
16118;DHT22;8163;50.118;5.342;2023-03-14T15:26:02;7.20;99.90
16118;DHT22;8163;50.118;5.342;2023-03-14T15:28:32;7.10;99.90
16118;DHT22;8163;50.118;5.342;2023-03-14T15:30:59;7.10;99.90
16118;DHT22;8163;50.118;5.342;2023-03-14T15:33:26;7.00;99.90
16118;DHT22;8163;50.118;5.342;2023-03-14T15:35:55;7.00;99.90
16118;DHT22;8163;50.118;5.342;2023-03-14T15:38:22;6.90;99.90
16118;DHT22;8163;50.118;5.342;2023-03-14T15:40:52;6.80;99.90
16118;DHT22;8163;50.118;5.342;2023-03-14T15:43:19;6.70;99.90
16118;DHT22;8163;50.118;5.342;2023-03-14T15:45:46;6.70;99.90
16118;DHT22;8163;50.118;5.342;2023-03-14T15:48:16;6.60;99.90
16118;DHT22;8163;50.118;5.342;2023-03-14T15:50:43;6.40;99.90
16118;DHT22;8163;50.118;5.342;2023-03-14T15:53:11;6.20;99.90
16118;DHT22;8163;50.118;5.342;2023-03-14T15:55:38;6.10;99.90
16118;DHT22;8163;50.118;5.342;2023-03-14T15:58:13;6.00;99.90
16118;DHT22;8163;50.118;5.342;2023-03-14T16:00:41;5.90;99.90
16118;DHT22;8163;50.118;5.342;2023-03-14T16:03:08;5.80;99.90
16118;DHT22;8163;50.118;5.342;2023-03-14T16:05:36;5.80;99.90
16118;DHT22;8163;50.118;5.342;2023-03-14T16:08:03;5.70;99.90
16118;DHT22;8163;50.118;5.342;2023-03-14T16:10:30;5.60;99.90
16118;DHT22;8163;50.118;5.342;2023-03-14T16:12:58;5.50;99.90
16118;DHT22;8163;50.118;5.342;2023-03-14T16:15:28;5.40;99.90
16118;DHT22;8163;50.118;5.342;2023-03-14T16:17:55;5.30;99.90
16118;DHT22;8163;50.118;5.342;2023-03-14T16:20:23;5.20;99.90
16118;DHT22;8163;50.118;5.342;2023-03-14T16:22:53;5.10;99.90
16118;DHT22;8163;50.118;5.342;2023-03-14T16:25:20;5.10;99.90
16118;DHT22;8163;50.118;5.342;2023-03-14T16:27:54;5.00;99.90
16118;DHT22;8163;50.118;5.342;2023-03-14T16:30:23;4.90;99.90
16118;DHT22;8163;50.118;5.342;2023-03-14T16:32:52;4.90;99.90
16118;DHT22;8163;50.118;5.342;2023-03-14T16:35:19;4.90;99.90
16118;DHT22;8163;50.118;5.342;2023-03-14T16:37:46;4.90;99.90
16118;DHT22;8163;50.118;5.342;2023-03-14T16:40:14;4.90;99.90
16118;DHT22;8163;50.118;5.342;2023-03-14T16:42:44;4.90;99.90
16118;DHT22;8163;50.118;5.342;2023-03-14T16:45:12;5.00;99.90
16118;DHT22;8163;50.118;5.342;2023-03-14T16:47:39;4.90;99.90
16118;DHT22;8163;50.118;5.342;2023-03-14T16:50:09;4.90;99.90
16118;DHT22;8163;50.118;5.342;2023-03-14T16:52:37;4.80;99.90
16118;DHT22;8163;50.118;5.342;2023-03-14T16:55:04;4.80;99.90